sensor_id;sensor_type;location;lat;lon;timestamp;P1;durP1;ratioP1;P2;durP2;ratioP2
35462;SDS011;21578;47.892;9.970;2023-02-28T00:00:19;2.93;;;2.50;;
35462;SDS011;21578;47.892;9.970;2023-02-28T00:05:07;3.20;;;2.90;;
35462;SDS011;21578;47.892;9.970;2023-02-28T00:09:56;2.83;;;1.83;;
35462;SDS011;21578;47.892;9.970;2023-02-28T00:14:43;2.67;;;2.03;;
35462;SDS011;21578;47.892;9.970;2023-02-28T00:19:30;2.50;;;2.10;;
35462;SDS011;21578;47.892;9.970;2023-02-28T00:24:17;2.90;;;2.60;;
35462;SDS011;21578;47.892;9.970;2023-02-28T00:29:05;4.10;;;3.10;;
35462;SDS011;21578;47.892;9.970;2023-02-28T00:33:52;4.53;;;2.67;;
35462;SDS011;21578;47.892;9.970;2023-02-28T00:38:40;2.90;;;2.60;;
35462;SDS011;21578;47.892;9.970;2023-02-28T00:43:27;3.30;;;2.90;;
35462;SDS011;21578;47.892;9.970;2023-02-28T00:48:16;2.77;;;2.57;;
35462;SDS011;21578;47.892;9.970;2023-02-28T00:53:02;3.10;;;2.63;;
35462;SDS011;21578;47.892;9.970;2023-02-28T00:57:49;2.27;;;2.07;;
35462;SDS011;21578;47.892;9.970;2023-02-28T01:02:36;2.80;;;2.47;;
35462;SDS011;21578;47.892;9.970;2023-02-28T01:07:24;4.40;;;2.30;;
35462;SDS011;21578;47.892;9.970;2023-02-28T01:12:11;3.23;;;2.90;;
35462;SDS011;21578;47.892;9.970;2023-02-28T01:16:58;3.07;;;2.10;;
35462;SDS011;21578;47.892;9.970;2023-02-28T01:21:45;2.27;;;2.00;;
35462;SDS011;21578;47.892;9.970;2023-02-28T01:26:34;2.13;;;1.93;;
35462;SDS011;21578;47.892;9.970;2023-02-28T01:31:21;3.50;;;1.90;;
35462;SDS011;21578;47.892;9.970;2023-02-28T01:36:10;2.37;;;1.97;;
35462;SDS011;21578;47.892;9.970;2023-02-28T01:40:58;15.47;;;6.13;;
35462;SDS011;21578;47.892;9.970;2023-02-28T01:45:47;15.13;;;7.43;;
35462;SDS011;21578;47.892;9.970;2023-02-28T01:50:35;2.60;;;2.40;;
35462;SDS011;21578;47.892;9.970;2023-02-28T01:55:24;14.93;;;7.10;;
35462;SDS011;21578;47.892;9.970;2023-02-28T02:00:16;3.23;;;2.77;;
35462;SDS011;21578;47.892;9.970;2023-02-28T02:05:06;4.47;;;3.10;;
35462;SDS011;21578;47.892;9.970;2023-02-28T02:10:01;17.90;;;8.63;;
35462;SDS011;21578;47.892;9.970;2023-02-28T02:14:54;5.10;;;3.83;;
35462;SDS011;21578;47.892;9.970;2023-02-28T05:35:22;4.87;;;3.47;;
35462;SDS011;21578;47.892;9.970;2023-02-28T05:40:10;6.13;;;4.27;;
35462;SDS011;21578;47.892;9.970;2023-02-28T05:44:58;12.47;;;7.63;;
35462;SDS011;21578;47.892;9.970;2023-02-28T05:49:44;4.83;;;4.23;;
35462;SDS011;21578;47.892;9.970;2023-02-28T05:54:33;4.77;;;3.50;;
35462;SDS011;21578;47.892;9.970;2023-02-28T05:59:20;4.73;;;4.00;;
35462;SDS011;21578;47.892;9.970;2023-02-28T06:04:07;3.97;;;3.43;;
35462;SDS011;21578;47.892;9.970;2023-02-28T06:08:56;6.03;;;4.53;;
35462;SDS011;21578;47.892;9.970;2023-02-28T06:13:45;10.13;;;8.03;;
35462;SDS011;21578;47.892;9.970;2023-02-28T06:18:32;5.63;;;4.10;;
35462;SDS011;21578;47.892;9.970;2023-02-28T06:23:18;8.30;;;6.80;;
35462;SDS011;21578;47.892;9.970;2023-02-28T06:28:05;6.90;;;4.77;;
35462;SDS011;21578;47.892;9.970;2023-02-28T06:32:54;4.83;;;3.83;;
35462;SDS011;21578;47.892;9.970;2023-02-28T06:37:41;6.20;;;4.17;;
35462;SDS011;21578;47.892;9.970;2023-02-28T06:42:28;7.60;;;5.63;;
35462;SDS011;21578;47.892;9.970;2023-02-28T06:47:16;7.23;;;5.73;;
35462;SDS011;21578;47.892;9.970;2023-02-28T06:52:04;8.77;;;5.90;;
35462;SDS011;21578;47.892;9.970;2023-02-28T06:56:51;8.00;;;5.57;;
35462;SDS011;21578;47.892;9.970;2023-02-28T07:01:39;6.37;;;4.23;;
35462;SDS011;21578;47.892;9.970;2023-02-28T07:06:26;7.07;;;5.20;;
35462;SDS011;21578;47.892;9.970;2023-02-28T07:11:15;5.97;;;4.67;;
35462;SDS011;21578;47.892;9.970;2023-02-28T07:16:03;11.23;;;4.53;;
35462;SDS011;21578;47.892;9.970;2023-02-28T07:20:51;8.27;;;5.30;;
35462;SDS011;21578;47.892;9.970;2023-02-28T07:25:39;6.90;;;5.30;;
35462;SDS011;21578;47.892;9.970;2023-02-28T07:30:27;7.23;;;5.23;;
35462;SDS011;21578;47.892;9.970;2023-02-28T07:35:14;11.33;;;6.10;;
35462;SDS011;21578;47.892;9.970;2023-02-28T07:40:01;10.33;;;5.53;;
35462;SDS011;21578;47.892;9.970;2023-02-28T07:44:51;11.50;;;6.57;;
35462;SDS011;21578;47.892;9.970;2023-02-28T07:49:39;8.17;;;5.77;;
35462;SDS011;21578;47.892;9.970;2023-02-28T07:54:26;9.67;;;5.47;;
35462;SDS011;21578;47.892;9.970;2023-02-28T07:59:13;6.47;;;4.87;;
35462;SDS011;21578;47.892;9.970;2023-02-28T08:04:00;7.90;;;5.93;;
35462;SDS011;21578;47.892;9.970;2023-02-28T08:08:48;6.10;;;4.97;;
35462;SDS011;21578;47.892;9.970;2023-02-28T08:13:35;6.40;;;5.20;;
35462;SDS011;21578;47.892;9.970;2023-02-28T08:18:22;8.07;;;5.83;;
35462;SDS011;21578;47.892;9.970;2023-02-28T08:23:10;9.77;;;6.27;;
35462;SDS011;21578;47.892;9.970;2023-02-28T08:27:59;5.87;;;5.27;;
35462;SDS011;21578;47.892;9.970;2023-02-28T08:32:46;6.07;;;5.10;;
35462;SDS011;21578;47.892;9.970;2023-02-28T08:37:33;7.23;;;5.63;;
35462;SDS011;21578;47.892;9.970;2023-02-28T08:42:20;6.97;;;5.60;;
35462;SDS011;21578;47.892;9.970;2023-02-28T08:47:08;8.77;;;6.30;;
35462;SDS011;21578;47.892;9.970;2023-02-28T08:51:55;6.17;;;5.23;;
35462;SDS011;21578;47.892;9.970;2023-02-28T08:56:42;9.13;;;6.97;;
35462;SDS011;21578;47.892;9.970;2023-02-28T09:01:29;9.13;;;6.87;;
35462;SDS011;21578;47.892;9.970;2023-02-28T09:06:18;9.13;;;6.90;;
35462;SDS011;21578;47.892;9.970;2023-02-28T09:11:07;9.83;;;6.50;;
35462;SDS011;21578;47.892;9.970;2023-02-28T09:15:54;7.93;;;6.30;;
35462;SDS011;21578;47.892;9.970;2023-02-28T09:20:43;8.93;;;6.70;;
35462;SDS011;21578;47.892;9.970;2023-02-28T09:25:31;10.73;;;6.70;;
35462;SDS011;21578;47.892;9.970;2023-02-28T09:30:19;17.27;;;13.07;;
35462;SDS011;21578;47.892;9.970;2023-02-28T09:35:06;9.40;;;7.00;;
35462;SDS011;21578;47.892;9.970;2023-02-28T09:39:58;7.80;;;5.87;;
35462;SDS011;21578;47.892;9.970;2023-02-28T09:44:46;8.03;;;6.90;;
35462;SDS011;21578;47.892;9.970;2023-02-28T09:49:37;9.37;;;6.90;;
35462;SDS011;21578;47.892;9.970;2023-02-28T09:54:28;13.70;;;8.73;;
35462;SDS011;21578;47.892;9.970;2023-02-28T09:59:17;9.97;;;7.10;;
35462;SDS011;21578;47.892;9.970;2023-02-28T10:04:22;10.37;;;7.80;;
35462;SDS011;21578;47.892;9.970;2023-02-28T10:09:22;13.73;;;9.53;;
35462;SDS011;21578;47.892;9.970;2023-02-28T10:14:14;10.73;;;7.60;;
35462;SDS011;21578;47.892;9.970;2023-02-28T10:19:04;8.33;;;7.17;;
35462;SDS011;21578;47.892;9.970;2023-02-28T10:24:02;8.60;;;6.70;;
35462;SDS011;21578;47.892;9.970;2023-02-28T10:28:57;7.97;;;6.07;;
35462;SDS011;21578;47.892;9.970;2023-02-28T10:33:44;10.37;;;7.00;;
35462;SDS011;21578;47.892;9.970;2023-02-28T10:38:32;9.33;;;7.00;;
35462;SDS011;21578;47.892;9.970;2023-02-28T10:43:22;8.03;;;6.50;;
35462;SDS011;21578;47.892;9.970;2023-02-28T10:48:25;7.93;;;6.47;;
35462;SDS011;21578;47.892;9.970;2023-02-28T10:53:17;11.83;;;8.00;;
35462;SDS011;21578;47.892;9.970;2023-02-28T10:58:23;8.40;;;6.70;;
35462;SDS011;21578;47.892;9.970;2023-02-28T11:03:21;10.20;;;7.70;;
35462;SDS011;21578;47.892;9.970;2023-02-28T11:08:12;9.27;;;6.40;;
35462;SDS011;21578;47.892;9.970;2023-02-28T11:13:01;12.27;;;8.33;;
35462;SDS011;21578;47.892;9.970;2023-02-28T11:17:54;9.37;;;7.13;;
35462;SDS011;21578;47.892;9.970;2023-02-28T11:22:43;12.73;;;7.93;;
35462;SDS011;21578;47.892;9.970;2023-02-28T11:27:41;7.57;;;6.70;;
35462;SDS011;21578;47.892;9.970;2023-02-28T11:32:34;9.77;;;7.20;;
35462;SDS011;21578;47.892;9.970;2023-02-28T11:37:22;9.00;;;6.77;;
35462;SDS011;21578;47.892;9.970;2023-02-28T11:47:31;11.60;;;9.93;;
35462;SDS011;21578;47.892;9.970;2023-02-28T11:52:21;12.30;;;9.03;;
35462;SDS011;21578;47.892;9.970;2023-02-28T11:57:21;7.90;;;5.57;;
35462;SDS011;21578;47.892;9.970;2023-02-28T12:02:20;10.07;;;7.47;;
35462;SDS011;21578;47.892;9.970;2023-02-28T12:07:13;12.07;;;8.63;;
35462;SDS011;21578;47.892;9.970;2023-02-28T12:12:07;15.17;;;9.17;;
35462;SDS011;21578;47.892;9.970;2023-02-28T12:17:06;14.77;;;9.90;;
35462;SDS011;21578;47.892;9.970;2023-02-28T12:22:09;13.03;;;8.47;;
35462;SDS011;21578;47.892;9.970;2023-02-28T12:27:09;12.50;;;9.37;;
35462;SDS011;21578;47.892;9.970;2023-02-28T12:31:59;8.97;;;7.23;;
35462;SDS011;21578;47.892;9.970;2023-02-28T12:36:51;20.20;;;10.80;;
35462;SDS011;21578;47.892;9.970;2023-02-28T12:41:43;10.53;;;8.00;;
35462;SDS011;21578;47.892;9.970;2023-02-28T12:46:34;10.40;;;6.77;;
35462;SDS011;21578;47.892;9.970;2023-02-28T12:51:27;10.90;;;8.30;;
35462;SDS011;21578;47.892;9.970;2023-02-28T12:56:16;13.87;;;9.90;;
35462;SDS011;21578;47.892;9.970;2023-02-28T13:01:15;11.67;;;8.33;;
35462;SDS011;21578;47.892;9.970;2023-02-28T13:06:31;9.90;;;8.17;;
35462;SDS011;21578;47.892;9.970;2023-02-28T13:11:32;10.60;;;7.60;;
35462;SDS011;21578;47.892;9.970;2023-02-28T13:16:24;13.53;;;8.87;;
35462;SDS011;21578;47.892;9.970;2023-02-28T13:21:21;9.73;;;7.87;;
35462;SDS011;21578;47.892;9.970;2023-02-28T13:26:10;13.00;;;9.20;;
35462;SDS011;21578;47.892;9.970;2023-02-28T13:31:02;10.30;;;7.87;;
35462;SDS011;21578;47.892;9.970;2023-02-28T13:36:01;11.30;;;8.93;;
35462;SDS011;21578;47.892;9.970;2023-02-28T13:40:55;12.27;;;9.13;;
35462;SDS011;21578;47.892;9.970;2023-02-28T13:46:06;12.73;;;9.60;;
35462;SDS011;21578;47.892;9.970;2023-02-28T13:50:57;12.80;;;9.33;;
35462;SDS011;21578;47.892;9.970;2023-02-28T13:55:45;12.23;;;8.40;;
35462;SDS011;21578;47.892;9.970;2023-02-28T14:00:41;11.07;;;8.47;;
35462;SDS011;21578;47.892;9.970;2023-02-28T14:05:38;12.23;;;9.20;;
35462;SDS011;21578;47.892;9.970;2023-02-28T14:10:27;13.23;;;9.97;;
35462;SDS011;21578;47.892;9.970;2023-02-28T14:15:25;14.27;;;9.87;;
35462;SDS011;21578;47.892;9.970;2023-02-28T14:20:44;11.90;;;9.13;;
35462;SDS011;21578;47.892;9.970;2023-02-28T14:25:33;13.07;;;8.43;;
35462;SDS011;21578;47.892;9.970;2023-02-28T14:30:37;11.10;;;8.57;;
35462;SDS011;21578;47.892;9.970;2023-02-28T14:35:43;9.07;;;7.70;;
35462;SDS011;21578;47.892;9.970;2023-02-28T14:40:40;18.40;;;12.33;;
35462;SDS011;21578;47.892;9.970;2023-02-28T14:45:29;15.30;;;9.80;;
35462;SDS011;21578;47.892;9.970;2023-02-28T14:50:18;12.23;;;8.63;;
35462;SDS011;21578;47.892;9.970;2023-02-28T14:55:12;12.77;;;9.37;;
35462;SDS011;21578;47.892;9.970;2023-02-28T15:00:02;12.47;;;9.67;;
35462;SDS011;21578;47.892;9.970;2023-02-28T15:04:57;15.00;;;10.87;;
35462;SDS011;21578;47.892;9.970;2023-02-28T15:09:45;14.50;;;9.80;;
35462;SDS011;21578;47.892;9.970;2023-02-28T15:14:33;12.27;;;8.33;;
35462;SDS011;21578;47.892;9.970;2023-02-28T15:19:23;11.50;;;7.97;;
35462;SDS011;21578;47.892;9.970;2023-02-28T15:24:15;23.97;;;15.57;;
35462;SDS011;21578;47.892;9.970;2023-02-28T15:29:11;12.33;;;9.40;;
35462;SDS011;21578;47.892;9.970;2023-02-28T15:34:04;18.23;;;10.40;;
35462;SDS011;21578;47.892;9.970;2023-02-28T15:38:52;18.00;;;10.47;;
35462;SDS011;21578;47.892;9.970;2023-02-28T15:43:40;15.07;;;10.63;;
35462;SDS011;21578;47.892;9.970;2023-02-28T15:48:28;11.60;;;9.23;;
35462;SDS011;21578;47.892;9.970;2023-02-28T15:53:19;9.80;;;7.70;;
35462;SDS011;21578;47.892;9.970;2023-02-28T15:58:09;15.93;;;10.17;;
35462;SDS011;21578;47.892;9.970;2023-02-28T16:02:58;13.40;;;9.40;;
35462;SDS011;21578;47.892;9.970;2023-02-28T16:07:45;16.97;;;10.07;;
35462;SDS011;21578;47.892;9.970;2023-02-28T16:12:35;12.77;;;9.70;;
35462;SDS011;21578;47.892;9.970;2023-02-28T16:17:24;12.10;;;9.00;;
35462;SDS011;21578;47.892;9.970;2023-02-28T16:22:12;14.43;;;9.90;;
35462;SDS011;21578;47.892;9.970;2023-02-28T16:26:59;10.90;;;8.63;;
35462;SDS011;21578;47.892;9.970;2023-02-28T16:31:48;13.40;;;9.80;;
35462;SDS011;21578;47.892;9.970;2023-02-28T16:36:35;13.10;;;10.53;;
35462;SDS011;21578;47.892;9.970;2023-02-28T16:41:23;13.93;;;8.70;;
35462;SDS011;21578;47.892;9.970;2023-02-28T16:46:12;13.87;;;10.30;;
35462;SDS011;21578;47.892;9.970;2023-02-28T16:51:00;20.30;;;13.73;;
35462;SDS011;21578;47.892;9.970;2023-02-28T16:55:49;13.00;;;9.90;;
35462;SDS011;21578;47.892;9.970;2023-02-28T17:00:36;10.47;;;8.67;;
35462;SDS011;21578;47.892;9.970;2023-02-28T17:05:24;12.23;;;10.43;;
35462;SDS011;21578;47.892;9.970;2023-02-28T17:10:16;15.83;;;11.67;;
35462;SDS011;21578;47.892;9.970;2023-02-28T17:15:04;12.67;;;10.83;;
35462;SDS011;21578;47.892;9.970;2023-02-28T17:19:52;14.20;;;9.63;;
35462;SDS011;21578;47.892;9.970;2023-02-28T17:24:39;13.17;;;11.00;;
35462;SDS011;21578;47.892;9.970;2023-02-28T17:29:28;13.83;;;9.60;;
35462;SDS011;21578;47.892;9.970;2023-02-28T17:34:15;13.63;;;9.97;;
35462;SDS011;21578;47.892;9.970;2023-02-28T17:39:03;14.13;;;9.17;;
35462;SDS011;21578;47.892;9.970;2023-02-28T17:43:55;14.37;;;10.40;;
35462;SDS011;21578;47.892;9.970;2023-02-28T17:48:43;16.30;;;10.50;;
35462;SDS011;21578;47.892;9.970;2023-02-28T17:53:30;15.93;;;10.90;;
35462;SDS011;21578;47.892;9.970;2023-02-28T17:58:17;13.33;;;9.80;;
35462;SDS011;21578;47.892;9.970;2023-02-28T18:03:04;13.47;;;9.70;;
35462;SDS011;21578;47.892;9.970;2023-02-28T18:07:52;14.73;;;10.27;;
35462;SDS011;21578;47.892;9.970;2023-02-28T18:12:39;17.87;;;12.93;;
35462;SDS011;21578;47.892;9.970;2023-02-28T18:17:26;16.43;;;12.40;;
35462;SDS011;21578;47.892;9.970;2023-02-28T18:22:13;17.03;;;13.53;;
35462;SDS011;21578;47.892;9.970;2023-02-28T18:27:02;17.20;;;12.03;;
35462;SDS011;21578;47.892;9.970;2023-02-28T18:31:50;13.90;;;11.30;;
35462;SDS011;21578;47.892;9.970;2023-02-28T18:36:38;15.43;;;11.07;;
35462;SDS011;21578;47.892;9.970;2023-02-28T18:41:26;16.97;;;11.13;;
35462;SDS011;21578;47.892;9.970;2023-02-28T18:46:18;18.20;;;13.20;;
35462;SDS011;21578;47.892;9.970;2023-02-28T18:51:06;18.83;;;13.10;;
35462;SDS011;21578;47.892;9.970;2023-02-28T18:55:58;19.50;;;13.33;;
35462;SDS011;21578;47.892;9.970;2023-02-28T19:00:46;19.20;;;13.53;;
35462;SDS011;21578;47.892;9.970;2023-02-28T19:05:35;18.93;;;13.17;;
35462;SDS011;21578;47.892;9.970;2023-02-28T19:10:22;17.90;;;13.53;;
35462;SDS011;21578;47.892;9.970;2023-02-28T19:15:10;18.47;;;13.20;;
35462;SDS011;21578;47.892;9.970;2023-02-28T19:19:57;19.93;;;13.33;;
35462;SDS011;21578;47.892;9.970;2023-02-28T19:24:45;18.43;;;12.53;;
35462;SDS011;21578;47.892;9.970;2023-02-28T19:29:33;19.90;;;13.63;;
35462;SDS011;21578;47.892;9.970;2023-02-28T19:34:20;22.30;;;14.53;;
35462;SDS011;21578;47.892;9.970;2023-02-28T19:39:06;19.87;;;12.97;;
35462;SDS011;21578;47.892;9.970;2023-02-28T19:43:55;15.50;;;11.97;;
35462;SDS011;21578;47.892;9.970;2023-02-28T19:48:42;20.37;;;13.40;;
35462;SDS011;21578;47.892;9.970;2023-02-28T19:53:29;17.93;;;13.10;;
35462;SDS011;21578;47.892;9.970;2023-02-28T19:58:16;18.30;;;12.20;;
35462;SDS011;21578;47.892;9.970;2023-02-28T20:03:05;19.83;;;13.57;;
35462;SDS011;21578;47.892;9.970;2023-02-28T20:07:52;15.53;;;11.20;;
35462;SDS011;21578;47.892;9.970;2023-02-28T20:12:39;13.23;;;10.23;;
35462;SDS011;21578;47.892;9.970;2023-02-28T20:17:27;16.97;;;11.57;;
35462;SDS011;21578;47.892;9.970;2023-02-28T20:22:15;23.50;;;14.00;;
35462;SDS011;21578;47.892;9.970;2023-02-28T20:27:02;16.03;;;12.17;;
35462;SDS011;21578;47.892;9.970;2023-02-28T20:31:49;18.03;;;12.73;;
35462;SDS011;21578;47.892;9.970;2023-02-28T20:36:36;17.10;;;12.17;;
35462;SDS011;21578;47.892;9.970;2023-02-28T20:41:25;20.53;;;13.77;;
35462;SDS011;21578;47.892;9.970;2023-02-28T20:46:12;19.57;;;14.43;;
35462;SDS011;21578;47.892;9.970;2023-02-28T20:50:59;17.93;;;13.20;;
35462;SDS011;21578;47.892;9.970;2023-02-28T20:55:54;20.53;;;13.83;;
35462;SDS011;21578;47.892;9.970;2023-02-28T21:00:43;19.27;;;13.17;;
35462;SDS011;21578;47.892;9.970;2023-02-28T21:05:30;20.30;;;13.83;;
35462;SDS011;21578;47.892;9.970;2023-02-28T21:10:17;19.87;;;13.83;;
35462;SDS011;21578;47.892;9.970;2023-02-28T21:15:05;19.50;;;13.40;;
35462;SDS011;21578;47.892;9.970;2023-02-28T21:19:55;21.93;;;13.90;;
35462;SDS011;21578;47.892;9.970;2023-02-28T21:24:42;18.37;;;12.70;;
35462;SDS011;21578;47.892;9.970;2023-02-28T21:29:29;16.73;;;12.00;;
35462;SDS011;21578;47.892;9.970;2023-02-28T21:34:16;16.37;;;11.63;;
35462;SDS011;21578;47.892;9.970;2023-02-28T21:39:06;17.60;;;12.27;;
35462;SDS011;21578;47.892;9.970;2023-02-28T21:43:54;17.27;;;12.17;;
35462;SDS011;21578;47.892;9.970;2023-02-28T21:48:42;17.23;;;11.80;;
35462;SDS011;21578;47.892;9.970;2023-02-28T21:53:29;17.40;;;12.83;;
35462;SDS011;21578;47.892;9.970;2023-02-28T21:58:18;17.87;;;12.50;;
35462;SDS011;21578;47.892;9.970;2023-02-28T22:03:05;16.60;;;12.60;;
35462;SDS011;21578;47.892;9.970;2023-02-28T22:07:52;17.07;;;12.37;;
35462;SDS011;21578;47.892;9.970;2023-02-28T22:12:39;16.23;;;11.87;;
35462;SDS011;21578;47.892;9.970;2023-02-28T22:17:27;19.33;;;13.03;;
35462;SDS011;21578;47.892;9.970;2023-02-28T22:22:14;18.07;;;12.30;;
35462;SDS011;21578;47.892;9.970;2023-02-28T22:27:01;16.23;;;12.37;;
35462;SDS011;21578;47.892;9.970;2023-02-28T22:31:47;17.40;;;12.30;;
35462;SDS011;21578;47.892;9.970;2023-02-28T22:36:37;18.07;;;13.50;;
35462;SDS011;21578;47.892;9.970;2023-02-28T22:41:26;17.97;;;12.50;;
35462;SDS011;21578;47.892;9.970;2023-02-28T22:46:14;15.90;;;12.50;;
35462;SDS011;21578;47.892;9.970;2023-02-28T22:51:01;17.73;;;12.30;;
35462;SDS011;21578;47.892;9.970;2023-02-28T22:55:54;16.73;;;12.60;;
35462;SDS011;21578;47.892;9.970;2023-02-28T23:00:41;15.63;;;11.20;;
35462;SDS011;21578;47.892;9.970;2023-02-28T23:05:28;17.60;;;12.80;;
35462;SDS011;21578;47.892;9.970;2023-02-28T23:10:16;16.43;;;12.73;;
35462;SDS011;21578;47.892;9.970;2023-02-28T23:15:05;17.00;;;11.80;;
35462;SDS011;21578;47.892;9.970;2023-02-28T23:19:52;16.20;;;11.40;;
35462;SDS011;21578;47.892;9.970;2023-02-28T23:24:39;15.20;;;11.07;;
35462;SDS011;21578;47.892;9.970;2023-02-28T23:29:26;14.97;;;11.17;;
35462;SDS011;21578;47.892;9.970;2023-02-28T23:34:15;15.77;;;11.63;;
35462;SDS011;21578;47.892;9.970;2023-02-28T23:39:10;18.03;;;12.40;;
35462;SDS011;21578;47.892;9.970;2023-02-28T23:43:57;17.53;;;12.47;;
35462;SDS011;21578;47.892;9.970;2023-02-28T23:48:44;17.17;;;12.10;;
35462;SDS011;21578;47.892;9.970;2023-02-28T23:53:32;15.07;;;11.17;;
35462;SDS011;21578;47.892;9.970;2023-02-28T23:58:20;17.27;;;12.17;;
